Time;durP1;ratioP1;P1;durP2;ratioP2;P2;SDS_P1;SDS_P2;PMS_P1;PMS_P2;Temp;Humidity;BMP_temperature;BMP_pressure;BME280_temperature;BME280_humidity;BME280_pressure;Samples;Min_cycle;Max_cycle;Signal;HPM_P1;HPM_P2
2022/09/03 00:00:08;;;;;;;14.20;8.20;;;;;;;;;;5053374;28;20035;-56
2022/09/03 00:02:44;;;;;;;15.18;8.60;;;;;;;;;;5052578;28;20029;-61
2022/09/03 00:05:17;;;;;;;14.98;8.45;;;;;;;;;;5052975;28;20029;-58
2022/09/03 00:07:51;;;;;;;17.40;8.75;;;;;;;;;;5051962;28;20039;-57
2022/09/03 00:10:24;;;;;;;15.48;8.20;;;;;;;;;;5052448;28;20029;-57
2022/09/03 00:12:51;;;;;;;14.35;8.10;;;;;;;;;;5052336;28;20489;-58
2022/09/03 00:15:19;;;;;;;14.63;8.25;;;;;;;;;;5052195;28;20021;-55
2022/09/03 00:17:47;;;;;;;15.00;8.00;;;;;;;;;;5052105;28;20074;-60
2022/09/03 00:20:16;;;;;;;13.88;8.18;;;;;;;;;;5051380;28;20025;-60
2022/09/03 00:22:44;;;;;;;14.90;8.68;;;;;;;;;;5052092;28;20029;-58
2022/09/03 00:25:13;;;;;;;15.25;8.68;;;;;;;;;;5054387;28;20032;-57
2022/09/03 00:27:40;;;;;;;15.98;8.20;;;;;;;;;;5055573;28;20239;-57
2022/09/03 00:30:14;;;;;;;14.38;8.50;;;;;;;;;;5055868;28;20397;-58
2022/09/03 00:32:49;;;;;;;15.57;8.38;;;;;;;;;;5055776;28;20049;-60
2022/09/03 00:35:27;;;;;;;14.82;8.25;;;;;;;;;;5055894;28;20427;-57
2022/09/03 00:37:54;;;;;;;15.63;8.10;;;;;;;;;;5055184;28;20018;-57
2022/09/03 00:40:39;;;;;;;15.15;7.90;;;;;;;;;;5055552;28;20078;-57
2022/09/03 00:43:31;;;;;;;13.82;7.85;;;;;;;;;;5055315;28;20024;-58
2022/09/03 00:46:10;;;;;;;13.77;7.95;;;;;;;;;;5027898;28;20501;-58
2022/09/03 00:48:55;;;;;;;15.73;8.50;;;;;;;;;;5053122;28;20051;-59
2022/09/03 00:51:24;;;;;;;14.70;8.40;;;;;;;;;;5054859;28;20074;-57
2022/09/03 00:54:00;;;;;;;13.98;8.10;;;;;;;;;;5053608;28;20021;-59
2022/09/03 00:56:39;;;;;;;14.70;8.18;;;;;;;;;;5054768;28;20032;-58
2022/09/03 00:59:08;;;;;;;14.13;7.93;;;;;;;;;;5054184;28;20041;-56
2022/09/03 01:01:50;;;;;;;14.07;8.15;;;;;;;;;;5054856;28;20028;-54
2022/09/03 01:04:20;;;;;;;15.23;8.63;;;;;;;;;;5054699;28;20025;-56
2022/09/03 01:06:52;;;;;;;16.35;8.43;;;;;;;;;;5054482;28;20029;-58
2022/09/03 01:09:25;;;;;;;15.88;7.97;;;;;;;;;;5054126;28;20020;-58
2022/09/03 01:11:55;;;;;;;16.08;8.55;;;;;;;;;;5055489;28;20017;-53
2022/09/03 01:14:21;;;;;;;13.60;7.90;;;;;;;;;;5055210;28;20017;-57
2022/09/03 01:16:59;;;;;;;14.43;8.30;;;;;;;;;;5054875;28;20027;-57
2022/09/03 01:19:52;;;;;;;;;;;26.80;51.40;;;;;;5054924;28;20029;-56
2022/09/03 01:22:29;;;;;;;14.45;8.20;;;16.20;76.50;;;;;;5054420;28;20387;-58
2022/09/03 01:25:01;;;;;;;14.00;8.05;;;15.50;76.30;;;;;;5054516;28;20025;-57
2022/09/03 01:28:19;;;;;;;15.45;7.78;;;15.40;77.10;;;;;;5052411;28;20021;-59
2022/09/03 01:31:11;;;;;;;15.27;7.95;;;15.30;77.00;;;;;;5054369;28;20021;-56
2022/09/03 01:33:49;;;;;;;15.05;7.88;;;15.30;78.40;;;;;;5054194;28;20033;-57
2022/09/03 01:36:37;;;;;;;13.85;8.15;;;15.30;78.40;;;;;;5053929;28;20656;-60
2022/09/03 01:39:05;;;;;;;14.50;7.82;;;15.30;78.70;;;;;;5054212;28;20027;-56
2022/09/03 01:45:05;;;;;;;13.65;8.00;;;15.20;79.40;;;;;;5054657;28;19959;-57
2022/09/03 01:47:52;;;;;;;14.68;7.95;;;15.20;79.10;;;;;;5053728;28;20029;-61
2022/09/03 01:50:40;;;;;;;15.98;8.13;;;15.20;78.90;;;;;;5052794;28;20024;-59
2022/09/03 01:53:30;;;;;;;15.20;7.88;;;15.20;79.30;;;;;;5053301;28;20043;-57
2022/09/03 01:56:15;;;;;;;16.73;7.93;;;15.20;79.00;;;;;;5053704;28;20362;-56
2022/09/03 01:58:58;;;;;;;14.02;8.10;;;15.10;79.70;;;;;;5053700;28;20028;-58
2022/09/03 02:01:57;;;;;;;14.45;8.02;;;15.10;80.50;;;;;;5053586;28;20029;-60
2022/09/03 02:04:25;;;;;;;14.25;8.20;;;15.00;80.70;;;;;;5040875;28;20056;-53
2022/09/03 02:06:52;;;;;;;14.90;8.47;;;15.00;81.80;;;;;;5054340;28;20074;-58
2022/09/03 02:09:19;;;;;;;17.75;8.63;;;14.90;81.70;;;;;;5054030;28;20291;-57
2022/09/03 02:11:50;;;;;;;13.77;7.85;;;14.80;82.20;;;;;;5054180;28;20477;-57
2022/09/03 02:14:16;;;;;;;14.13;8.10;;;14.80;83.00;;;;;;5053518;28;20078;-57
2022/09/03 02:16:43;;;;;;;15.27;8.20;;;14.80;83.20;;;;;;5051668;28;20021;-58
2022/09/03 02:19:13;;;;;;;15.40;8.77;;;14.90;83.70;;;;;;5052505;28;20087;-58
2022/09/03 02:21:44;;;;;;;14.48;8.35;;;14.80;84.00;;;;;;5052821;28;20481;-57
2022/09/03 02:24:09;;;;;;;15.18;8.30;;;14.80;84.30;;;;;;5052950;28;20440;-58
2022/09/03 02:26:35;;;;;;;14.68;8.30;;;14.70;84.10;;;;;;5053134;28;20025;-59
2022/09/03 02:29:02;;;;;;;14.07;7.88;;;14.70;83.90;;;;;;5052697;28;20029;-57
2022/09/03 02:31:28;;;;;;;15.55;8.15;;;14.70;84.90;;;;;;5053032;28;20025;-56
2022/09/03 02:33:55;;;;;;;13.40;7.28;;;14.70;85.90;;;;;;5053057;28;20024;-57
2022/09/03 02:36:32;;;;;;;13.85;7.50;;;14.60;86.00;;;;;;5052822;28;20017;-58
2022/09/03 02:38:58;;;;;;;15.00;8.05;;;14.60;86.80;;;;;;5052797;28;20068;-58
2022/09/03 02:41:26;;;;;;;13.95;7.95;;;14.60;88.20;;;;;;5052722;28;20036;-55
2022/09/03 02:44:06;;;;;;;14.63;7.97;;;14.60;87.30;;;;;;5052900;28;20518;-50
2022/09/03 02:46:37;;;;;;;14.30;8.52;;;14.50;87.80;;;;;;5052187;28;20039;-54
2022/09/03 02:49:03;;;;;;;13.80;7.88;;;14.50;88.10;;;;;;5052729;28;20109;-56
2022/09/03 02:51:39;;;;;;;14.10;8.20;;;14.50;89.50;;;;;;5052769;28;20052;-57
2022/09/03 02:54:05;;;;;;;17.17;8.40;;;14.50;89.30;;;;;;5052799;28;20057;-54
2022/09/03 02:56:31;;;;;;;14.52;8.45;;;14.50;89.80;;;;;;5052351;28;20021;-57
2022/09/03 02:58:57;;;;;;;14.70;8.20;;;14.50;89.20;;;;;;5052391;28;20100;-60
2022/09/03 03:01:23;;;;;;;14.50;8.32;;;;;;;;;;5052420;28;20032;-55
2022/09/03 03:03:49;;;;;;;15.65;8.40;;;;;;;;;;5052698;28;20044;-59
2022/09/03 03:06:19;;;;;;;15.50;8.40;;;;;;;;;;5052501;28;20359;-58
2022/09/03 03:08:45;;;;;;;15.32;8.52;;;;;;;;;;5052383;28;20044;-60
2022/09/03 03:11:17;;;;;;;14.57;8.40;;;;;;;;;;5052618;28;20097;-57
2022/09/03 03:13:44;;;;;;;15.45;8.60;;;;;;;;;;5052343;28;20100;-58
2022/09/03 03:16:11;;;;;;;13.82;7.95;;;;;;;;;;5052367;28;20422;-59
2022/09/03 03:18:37;;;;;;;15.20;8.45;;;;;;;;;;5051960;28;20033;-60
2022/09/03 03:21:10;;;;;;;13.60;7.70;;;;;;;;;;5052746;28;20370;-58
2022/09/03 03:23:36;;;;;;;13.52;7.95;;;;;;;;;;5052290;28;20025;-59
2022/09/03 03:26:03;;;;;;;14.20;8.02;;;;;;;;;;5052312;28;20029;-58
2022/09/03 03:28:32;;;;;;;13.70;8.20;;;;;;;;;;5051945;28;20028;-59
2022/09/03 03:30:58;;;;;;;15.95;8.65;;;;;;;;;;5052644;28;20480;-57
2022/09/03 03:33:24;;;;;;;14.30;7.80;;;;;;;;;;5052178;28;20480;-58
2022/09/03 03:35:50;;;;;;;15.75;8.20;;;;;;;;;;5052021;28;20021;-57
2022/09/03 03:38:16;;;;;;;14.52;7.90;;;;;;;;;;5052352;28;20013;-57
2022/09/03 03:40:42;;;;;;;14.15;8.00;;;;;;;;;;5052423;28;20063;-60
2022/09/03 03:43:08;;;;;;;14.65;7.75;;;;;;;;;;5052019;28;20048;-57
2022/09/03 03:45:34;;;;;;;14.05;7.70;;;;;;;;;;5052049;28;20060;-59
2022/09/03 03:48:00;;;;;;;13.98;7.90;;;;;;;;;;5052155;28;20025;-57
2022/09/03 03:50:26;;;;;;;15.60;8.05;;;;;;;;;;5050619;28;20090;-57
2022/09/03 03:52:52;;;;;;;13.68;8.00;;;;;;;;;;5051838;28;20029;-59
2022/09/03 03:55:18;;;;;;;15.63;7.72;;;;;;;;;;5050790;28;20029;-61
2022/09/03 03:57:44;;;;;;;14.02;7.60;;;;;;;;;;5051587;28;20521;-59
2022/09/03 04:00:11;;;;;;;15.68;7.97;;;;;;;;;;5055757;28;20033;-58
2022/09/03 04:02:37;;;;;;;14.30;7.80;;;;;;;;;;5054420;28;20037;-61
2022/09/03 04:05:03;;;;;;;14.02;8.10;;;;;;;;;;5054553;28;20025;-58
2022/09/03 04:07:29;;;;;;;14.40;7.97;;;;;;;;;;5055491;28;20100;-61
2022/09/03 04:09:55;;;;;;;20.05;13.73;;;;;;;;;;5055670;28;20113;-56
2022/09/03 04:12:21;;;;;;;15.18;8.07;;;;;;;;;;5055562;28;20029;-54
2022/09/03 04:14:47;;;;;;;18.75;10.38;;;;;;;;;;5054301;28;20021;-57
2022/09/03 04:17:13;;;;;;;15.25;8.70;;;;;;;;;;5055063;28;20029;-56
2022/09/03 04:19:39;;;;;;;14.93;8.13;;;;;;;;;;5054124;28;20033;-55
2022/09/03 04:22:05;;;;;;;17.08;9.30;;;;;;;;;;5055365;28;20017;-56
2022/09/03 04:24:31;;;;;;;14.50;8.30;;;;;;;;;;5055373;28;20056;-60
2022/09/03 04:26:57;;;;;;;13.85;8.00;;;;;;;;;;5055012;28;20458;-54
2022/09/03 04:29:24;;;;;;;17.33;10.15;;;;;;;;;;5055026;28;20025;-58
2022/09/03 04:34:35;;;;;;;17.23;10.77;;;;;;;;;;5055685;28;20098;-55
2022/09/03 04:37:00;;;;;;;14.70;8.50;;;;;;;;;;5055414;28;20033;-58
2022/09/03 04:39:26;;;;;;;14.20;8.45;;;;;;;;;;5055023;28;20466;-57
2022/09/03 04:41:53;;;;;;;15.00;8.43;;;;;;;;;;5054583;28;20028;-58
2022/09/03 04:44:19;;;;;;;17.52;10.18;;;;;;;;;;5054787;28;20025;-59
2022/09/03 04:46:47;;;;;;;14.63;8.73;;;;;;;;;;5054397;28;20055;-54
2022/09/03 04:49:13;;;;;;;17.55;8.60;;;;;;;;;;5053126;28;20033;-57
2022/09/03 04:51:39;;;;;;;18.13;10.43;;;;;;;;;;5054743;28;20021;-57
2022/09/03 04:54:05;;;;;;;15.65;9.10;;;;;;;;;;5053613;28;20097;-55
2022/09/03 04:56:33;;;;;;;14.65;8.55;;;;;;;;;;5053663;28;20068;-58
2022/09/03 04:59:00;;;;;;;16.17;9.32;;;;;;;;;;5053326;28;20448;-56
2022/09/03 05:01:27;;;;;;;15.80;8.68;;;;;;;;;;5054530;28;20025;-58
2022/09/03 05:03:54;;;;;;;14.45;8.93;;;;;;;;;;5051969;28;20028;-60
2022/09/03 05:06:20;;;;;;;14.93;8.70;;;;;;;;;;5054096;28;20032;-58
2022/09/03 05:08:50;;;;;;;30.60;9.57;;;;;;;;;;5054069;28;20047;-57
2022/09/03 05:11:16;;;;;;;14.27;8.57;;;;;;;;;;5053466;28;20067;-55
2022/09/03 05:13:43;;;;;;;15.48;9.38;;;;;;;;;;5054342;28;20033;-58
2022/09/03 05:16:10;;;;;;;16.20;8.50;;;;;;;;;;5054153;28;20366;-57
2022/09/03 05:18:36;;;;;;;14.55;8.35;;;;;;;;;;5054308;28;20029;-54
2022/09/03 05:21:03;;;;;;;15.25;9.30;;;;;;;;;;5054076;28;20043;-59
2022/09/03 05:23:30;;;;;;;15.00;8.70;;;;;;;;;;5054270;28;20025;-58
2022/09/03 05:26:01;;;;;;;15.07;8.88;;;;;;;;;;5054319;28;20028;-60
2022/09/03 05:28:29;;;;;;;14.60;8.80;;;;;;;;;;5052444;28;20029;-60
2022/09/03 05:31:01;;;;;;;15.17;8.70;;;;;;;;;;5054176;28;20033;-57
2022/09/03 05:33:28;;;;;;;15.57;9.00;;;;;;;;;;5054017;28;20097;-59
2022/09/03 05:35:54;;;;;;;14.65;8.85;;;;;;;;;;5053866;28;20129;-60
2022/09/03 05:38:20;;;;;;;14.27;8.73;;;;;;;;;;5053329;28;20090;-59
2022/09/03 05:40:46;;;;;;;24.58;15.27;;;;;;;;;;5053901;28;20021;-57
2022/09/03 05:43:12;;;;;;;16.52;10.10;;;;;;;;;;5052690;28;20025;-59
2022/09/03 05:45:38;;;;;;;19.15;11.50;;;;;;;;;;5053468;28;20024;-57
2022/09/03 05:48:04;;;;;;;15.10;9.50;;;;;;;;;;5051833;22;20042;-58
2022/09/03 05:50:30;;;;;;;15.80;9.70;;;;;;;;;;5033351;28;20041;-60
2022/09/03 05:52:58;;;;;;;19.30;10.27;;;;;;;;;;5032262;28;20079;-62
2022/09/03 05:55:24;;;;;;;15.53;8.93;;;;;;;;;;5032051;28;20385;-62
2022/09/03 05:57:53;;;;;;;17.38;10.88;;;;;;;;;;5032934;28;20117;-61
2022/09/03 06:00:21;;;;;;;16.83;9.10;;;;;;;;;;5031822;28;20025;-62
2022/09/03 06:02:56;;;;;;;15.25;8.82;;;;;;;;;;5031634;28;20035;-59
2022/09/03 06:05:23;;;;;;;15.40;8.63;;;;;;;;;;5033179;28;20025;-58
2022/09/03 06:07:49;;;;;;;16.08;8.90;;;;;;;;;;5031482;28;20459;-63
2022/09/03 06:10:18;;;;;;;16.85;8.90;;;;;;;;;;5032851;28;20053;-58
2022/09/03 06:12:48;;;;;;;16.17;8.30;;;;;;;;;;5032808;28;20108;-58
2022/09/03 06:15:14;;;;;;;14.15;8.20;;;;;;;;;;5032699;28;20397;-56
2022/09/03 06:17:40;;;;;;;20.63;10.20;;;;;;;;;;5032387;28;20021;-58
2022/09/03 06:20:06;;;;;;;14.63;8.90;;;;;;;;;;5032827;28;20193;-57
2022/09/03 06:22:32;;;;;;;19.83;13.45;;;;;;;;;;5030413;28;20028;-61
2022/09/03 06:24:58;;;;;;;17.98;9.60;;;;;;;;;;5032693;28;20495;-55
2022/09/03 06:27:24;;;;;;;15.70;8.35;;;;;;;;;;5032287;28;20029;-57
2022/09/03 06:29:50;;;;;;;14.70;8.52;;;;;;;;;;5032690;28;20033;-58
2022/09/03 06:32:16;;;;;;;16.63;8.65;;;;;;;;;;5031029;28;20482;-57
2022/09/03 06:34:42;;;;;;;16.33;9.60;;;;;;;;;;5031039;28;20025;-58
2022/09/03 06:37:08;;;;;;;16.38;9.57;;;;;;;;;;5032508;28;20033;-58
2022/09/03 06:39:36;;;;;;;15.52;8.95;;;;;;;;;;5052426;28;20662;-57
2022/09/03 06:42:02;;;;;;;15.80;8.93;;;;;;;;;;5052370;28;20485;-56
2022/09/03 06:44:28;;;;;;;14.32;8.38;;;;;;;;;;5052484;28;20055;-57
2022/09/03 06:46:54;;;;;;;17.30;8.70;;;;;;;;;;5051976;28;20048;-56
2022/09/03 06:49:20;;;;;;;14.38;8.55;;;;;;;;;;5051995;28;20719;-58
2022/09/03 06:51:47;;;;;;;15.05;8.88;;;;;;;;;;5052329;28;20025;-59
2022/09/03 06:54:14;;;;;;;14.35;8.80;;;;;;;;;;5051379;28;20021;-58
2022/09/03 06:56:40;;;;;;;15.13;8.75;;;;;;;;;;5052312;28;20033;-58
2022/09/03 06:59:11;;;;;;;15.02;9.15;;;;;;;;;;5050805;28;20119;-59
2022/09/03 07:01:40;;;;;;;15.40;8.88;;;;;;;;;;5051049;28;20025;-57
2022/09/03 07:04:07;;;;;;;15.75;9.00;;;;;;;;;;5046611;28;20095;-57
2022/09/03 07:06:38;;;;;;;15.10;8.55;;;;;;;;;;5030940;28;20025;-59
2022/09/03 07:09:08;;;;;;;16.92;8.80;;;;;;;;;;5031489;28;20025;-57
2022/09/03 07:11:35;;;;;;;16.40;8.52;;;;;;;;;;5032144;28;20021;-57
2022/09/03 07:14:02;;;;;;;17.65;8.60;;;;;;;;;;5031958;28;20389;-61
2022/09/03 07:16:30;;;;;;;16.50;8.90;;;;;;;;;;5031867;28;20055;-61
2022/09/03 07:18:56;;;;;;;17.42;8.80;;;;;;;;;;5031913;28;20512;-58
2022/09/03 07:21:23;;;;;;;14.80;8.73;;;;;;;;;;5031875;28;20029;-60
2022/09/03 07:23:50;;;;;;;14.23;8.40;;;;;;;;;;5031693;28;20030;-60
2022/09/03 07:26:20;;;;;;;14.95;8.80;;;;;;;;;;5031739;28;20026;-57
2022/09/03 07:28:47;;;;;;;14.68;8.80;;;;;;;;;;5031382;28;20029;-60
2022/09/03 07:31:16;;;;;;;16.25;8.90;;;;;;;;;;5031924;28;20517;-57
2022/09/03 07:33:42;;;;;;;16.80;9.35;;;;;;;;;;5033152;28;20037;-59
2022/09/03 07:36:10;;;;;;;17.35;10.20;;;;;;;;;;5034402;28;20482;-59
2022/09/03 07:38:36;;;;;;;15.68;9.40;;;;;;;;;;5035336;28;20025;-59
2022/09/03 07:41:04;;;;;;;16.13;10.00;;;;;;;;;;5034136;28;20022;-58
2022/09/03 07:43:33;;;;;;;14.68;9.18;;;;;;;;;;5034666;28;20436;-60
2022/09/03 07:46:00;;;;;;;16.98;9.02;;;;;;;;;;5034359;28;20026;-60
2022/09/03 07:48:26;;;;;;;14.90;9.63;;;;;;;;;;5035096;28;20087;-57
2022/09/03 07:50:53;;;;;;;16.55;9.65;;;;;;;;;;5035224;28;20083;-58
2022/09/03 07:53:19;;;;;;;17.80;10.05;;;;;;;;;;5035191;28;20032;-56
2022/09/03 07:55:46;;;;;;;15.63;9.38;;;;;;;;;;5035359;28;20064;-58
2022/09/03 07:58:13;;;;;;;15.55;9.43;;;;;;;;;;5035477;28;20402;-59
2022/09/03 08:00:39;;;;;;;15.13;9.15;;;;;;;;;;5035582;28;20026;-67
2022/09/03 08:03:07;;;;;;;15.68;9.65;;;;;;;;;;5035639;28;20021;-64
2022/09/03 08:05:35;;;;;;;26.95;10.02;;;;;;;;;;5035547;28;20028;-64
2022/09/03 08:08:01;;;;;;;15.93;9.33;;;;;;;;;;5035358;28;20049;-64
2022/09/03 08:10:29;;;;;;;24.90;13.48;;;;;;;;;;5035681;28;20025;-64
2022/09/03 08:12:55;;;;;;;16.73;10.43;;;;;;;;;;5035560;28;20478;-64
2022/09/03 08:15:21;;;;;;;15.73;9.32;;;;;;;;;;5035609;28;20041;-63
2022/09/03 08:17:48;;;;;;;16.08;9.52;;;;;;;;;;5035019;28;20033;-64
2022/09/03 08:20:14;;;;;;;17.30;10.10;;;;;;;;;;5035210;28;20021;-63
2022/09/03 08:22:40;;;;;;;15.95;9.55;;;;;;;;;;5035420;28;20057;-63
2022/09/03 08:25:07;;;;;;;16.83;9.82;;;;;;;;;;5035157;28;20474;-63
2022/09/03 08:27:34;;;;;;;15.88;9.32;;;;;;;;;;5034861;28;20429;-63
2022/09/03 08:30:00;;;;;;;18.25;10.68;;;;;;;;;;5035712;28;20028;-64
2022/09/03 08:32:26;;;;;;;16.42;9.40;;;;;;;;;;5038663;28;20021;-62
2022/09/03 08:34:52;;;;;;;17.65;10.88;;;;;;;;;;5039097;28;20098;-64
2022/09/03 08:37:18;;;;;;;15.10;9.48;;;;;;;;;;5035895;28;20057;-63
2022/09/03 08:39:44;;;;;;;16.95;9.75;;;;;;;;;;5034961;28;20021;-63
2022/09/03 08:42:11;;;;;;;16.40;10.23;;;;;;;;;;5034436;28;20035;-60
2022/09/03 08:44:37;;;;;;;16.90;9.40;;;;;;;;;;5033918;28;20084;-63
2022/09/03 08:47:12;;;;;;;15.77;9.10;;;;;;;;;;5034466;28;20037;-63
2022/09/03 08:49:56;;;;;;;20.45;9.30;;;;;;;;;;5034686;28;20033;-63
2022/09/03 08:52:29;;;;;;;16.55;10.30;;;;;;;;;;5034632;28;20444;-63
2022/09/03 08:55:00;;;;;;;16.08;9.85;;;;;;;;;;5034592;28;20030;-63
2022/09/03 08:57:27;;;;;;;15.75;9.38;;;;;;;;;;5034658;28;20020;-63
2022/09/03 08:59:55;;;;;;;18.92;9.70;;;;;;;;;;5034946;28;20091;-63
2022/09/03 09:02:39;;;;;;;14.63;9.10;;;;;;;;;;5034752;28;20055;-63
2022/09/03 09:05:11;;;;;;;17.40;9.48;;;;;;;;;;5034297;28;20037;-63
2022/09/03 09:07:41;;;;;;;16.23;9.07;;;;;;;;;;5032869;28;20485;-64
2022/09/03 09:10:19;;;;;;;15.63;9.32;;;;;;;;;;5032998;28;20021;-63
2022/09/03 09:12:45;;;;;;;16.58;9.85;;;;;;;;;;5034333;28;20482;-65
2022/09/03 09:15:13;;;;;;;16.17;9.27;;;;;;;;;;5034450;28;20029;-63
2022/09/03 09:17:51;;;;;;;17.05;9.82;;;;;;;;;;5034138;28;20087;-64
2022/09/03 09:20:26;;;;;;;15.40;9.63;;;;;;;;;;5034337;28;20032;-63
2022/09/03 09:22:58;;;;;;;15.25;9.20;;;;;;;;;;5033893;28;20096;-62
2022/09/03 09:25:25;;;;;;;15.00;8.95;;;;;;;;;;5034111;28;20063;-63
2022/09/03 09:28:02;;;;;;;16.20;9.80;;;;;;;;;;5032414;28;20038;-61
2022/09/03 09:30:30;;;;;;;16.13;9.88;;;;;;;;;;5033675;28;20112;-61
2022/09/03 09:32:56;;;;;;;16.17;9.50;;;;;;;;;;5034114;28;20100;-62
2022/09/03 09:35:23;;;;;;;16.52;9.13;;;;;;;;;;5033993;28;20068;-62
2022/09/03 09:37:56;;;;;;;15.63;9.13;;;;;;;;;;5033712;28;20358;-61
2022/09/03 09:40:42;;;;;;;15.95;9.27;;;;;;;;;;5034110;28;20026;-61
2022/09/03 09:43:14;;;;;;;15.68;8.80;;;;;;;;;;5033665;28;20056;-64
2022/09/03 09:45:42;;;;;;;14.45;9.02;;;;;;;;;;5033688;28;20056;-59
2022/09/03 09:48:10;;;;;;;14.83;9.00;;;;;;;;;;5035914;28;20033;-60
2022/09/03 09:50:36;;;;;;;14.73;9.30;;;;;;;;;;5033233;28;20033;-61
2022/09/03 09:53:07;;;;;;;15.82;9.63;;;;;;;;;;5033429;28;20375;-61
2022/09/03 09:55:33;;;;;;;14.50;9.50;;;;;;;;;;5032930;28;20077;-61
2022/09/03 09:58:10;;;;;;;16.80;10.07;;;;;;;;;;5032730;28;20022;-61
2022/09/03 10:00:37;;;;;;;15.77;9.45;;;;;;;;;;5033572;28;20029;-62
2022/09/03 10:03:07;;;;;;;16.05;9.40;;;;;;;;;;5033389;28;20152;-60
2022/09/03 10:05:39;;;;;;;16.08;9.77;;;;;;;;;;5033373;28;20422;-61
2022/09/03 10:08:25;;;;;;;15.60;9.77;;;;;;;;;;5032462;28;20124;-60
2022/09/03 10:10:51;;;;;;;15.30;10.43;;;;;;;;;;5033397;28;20030;-59
2022/09/03 10:13:30;;;;;;;17.00;9.80;;;;;;;;;;5033121;28;20096;-60
2022/09/03 10:15:59;;;;;;;15.85;9.70;;;;;;;;;;5032831;28;20041;-61
2022/09/03 10:18:39;;;;;;;16.48;10.07;;;;;;;;;;5032814;28;20021;-60
2022/09/03 10:21:40;;;;;;;15.82;10.35;;;;;;;;;;4682771;28;9999899;-60
2022/09/03 10:24:29;;;;;;;24.55;11.52;;;;;;;;;;4978764;28;20031;-63
2022/09/03 10:26:57;;;;;;;16.75;10.00;;;;;;;;;;5022474;28;20040;-61
2022/09/03 10:29:28;;;;;;;15.30;10.02;;;;;;;;;;5028847;28;20413;-61
2022/09/03 10:31:55;;;;;;;15.80;10.23;;;;;;;;;;5010205;28;20560;-61
2022/09/03 10:34:35;;;;;;;16.92;10.18;;;;;;;;;;5010124;28;20032;-61
2022/09/03 10:37:17;;;;;;;17.83;10.10;;;;;;;;;;5009824;28;20456;-61
2022/09/03 10:39:57;;;;;;;15.98;10.25;;;;;;;;;;5024628;28;20501;-61
2022/09/03 10:42:23;;;;;;;16.33;10.70;;;;;;;;;;5030193;28;20029;-62
2022/09/03 10:44:52;;;;;;;14.82;10.23;;;;;;;;;;5030124;28;20120;-62
2022/09/03 10:47:31;;;;;;;14.98;10.23;;;;;;;;;;5027983;28;20413;-62
2022/09/03 10:50:00;;;;;;;14.35;9.90;;;;;;;;;;5029743;28;20136;-62
2022/09/03 10:52:26;;;;;;;15.88;10.15;;;;;;;;;;5029943;28;20032;-61
2022/09/03 10:54:59;;;;;;;16.35;10.98;;;;;;;;;;4682638;28;10000569;-62
2022/09/03 10:57:37;;;;;;;16.70;10.30;;;;;;;;;;5010905;28;20025;-60
2022/09/03 11:00:06;;;;;;;19.10;12.38;;;;;;;;;;5011688;28;20037;-62
2022/09/03 11:02:42;;;;;;;17.20;10.60;;;;;;;;;;5012232;28;20026;-63
2022/09/03 11:05:13;;;;;;;17.50;10.52;;;;;;;;;;5025673;28;20338;-60
2022/09/03 11:07:50;;;;;;;16.33;10.90;;;14.50;89.40;;;;;;5031123;28;20444;-60
2022/09/03 11:10:19;;;;;;;14.98;10.43;;;;;;;;;;5030622;28;20110;-61
2022/09/03 11:12:55;;;;;;;15.02;10.70;;;;;;;;;;4682703;28;9999855;-62
2022/09/03 11:15:30;;;;;;;16.15;11.27;;;;;;;;;;5028958;28;20033;-62
2022/09/03 11:18:01;;;;;;;17.13;10.90;;;;;;;;;;5028738;28;20030;-62
2022/09/03 11:20:27;;;;;;;15.20;10.70;;;;;;;;;;5028900;28;20026;-62
2022/09/03 11:22:55;;;;;;;18.55;11.23;;;;;;;;;;5028964;28;20029;-59
2022/09/03 11:25:24;;;;;;;15.85;11.13;;;;;;;;;;5032972;28;20025;-62
2022/09/03 11:27:57;;;;;;;19.20;11.93;;;;;;;;;;5048501;28;20098;-60
2022/09/03 11:30:24;;;;;;;15.77;11.23;;;;;;;;;;5032690;28;20033;-62
2022/09/03 11:32:54;;;;;;;15.43;11.07;;;;;;;;;;5029276;28;20097;-62
2022/09/03 11:35:26;;;;;;;15.60;11.20;;;;;;;;;;5028587;28;20025;-63
2022/09/03 11:37:52;;;;;;;14.82;11.00;;;;;;;;;;5029940;28;20022;-62
2022/09/03 11:40:20;;;;;;;16.52;11.60;;;;;;;;;;5030305;28;20030;-63
2022/09/03 11:42:47;;;;;;;18.80;11.50;;;;;;;;;;5031147;28;20539;-62
2022/09/03 11:45:22;;;;;;;16.15;11.50;;;;;;;;;;5029941;28;20516;-64
2022/09/03 11:47:49;;;;;;;17.10;10.85;;;;;;;;;;5054269;22;20045;-60
2022/09/03 11:50:21;;;;;;;15.70;11.32;;;;;;;;;;5029923;28;20512;-61
2022/09/03 11:52:49;;;;;;;17.45;10.90;;;;;;;;;;5030973;28;20040;-64
2022/09/03 11:55:35;;;;;;;15.25;10.30;;;;;;;;;;5031027;28;20462;-64
2022/09/03 11:58:12;;;;;;;15.02;10.30;;;;;;;;;;5030595;28;20105;-63
2022/09/03 12:00:43;;;;;;;15.10;10.55;;;;;;;;;;5030913;28;20413;-63
2022/09/03 12:03:14;;;;;;;17.08;11.20;;;;;;;;;;5030864;28;20080;-62
2022/09/03 12:06:00;;;;;;;16.33;11.30;;;;;;;;;;5029546;28;20144;-62
2022/09/03 12:08:27;;;;;;;17.20;12.23;;;;;;;;;;5030430;28;20465;-62
2022/09/03 12:10:57;;;;;;;17.73;11.82;;;;;;;;;;5030338;28;20022;-62
2022/09/03 12:13:47;;;;;;;16.92;11.10;;;;;;;;;;5030647;28;20028;-63
2022/09/03 12:16:22;;;;;;;17.77;11.48;;;;;;;;;;5011795;28;20108;-62
2022/09/03 12:18:51;;;;;;;17.27;11.23;;;;;;;;;;5031012;28;20036;-63
2022/09/03 12:21:18;;;;;;;15.02;11.02;;;;;;;;;;5034407;28;20394;-62
2022/09/03 12:23:46;;;;;;;15.60;11.45;;;;;;;;;;5033601;28;20052;-58
2022/09/03 12:26:14;;;;;;;15.75;11.60;;;;;;;;;;5032939;28;20025;-62
2022/09/03 12:28:40;;;;;;;;;;;;;;;;;;5034603;28;20049;-63
2022/09/03 12:31:26;;;;;;;16.25;10.82;;;;;;;;;;5032937;28;20346;-62
2022/09/03 12:33:52;;;;;;;18.33;12.07;;;;;;;;;;5034415;28;20490;-62
2022/09/03 12:36:19;;;;;;;16.52;10.88;;;;;;;;;;5034363;28;20036;-63
2022/09/03 12:38:46;;;;;;;16.17;11.60;;;;;;;;;;5033971;28;20036;-62
2022/09/03 12:41:25;;;;;;;16.83;10.93;;;;;;;;;;5034138;28;20315;-62
2022/09/03 12:43:52;;;;;;;15.52;11.00;;;;;;;;;;5034332;28;20033;-62
2022/09/03 12:46:19;;;;;;;16.63;10.80;;;;;;;;;;5034189;28;20021;-62
2022/09/03 12:48:56;;;;;;;16.85;12.38;;;;;;;;;;5033475;28;20826;-60
2022/09/03 12:51:22;;;;;;;15.00;10.88;;;;;;;;;;5032898;28;20029;-61
2022/09/03 12:53:50;;;;;;;15.38;10.93;;;;;;;;;;5034199;28;20021;-65
2022/09/03 12:56:16;;;;;;;14.68;10.52;;;;;;;;;;5034314;28;20389;-62
2022/09/03 12:58:48;;;;;;;15.77;10.93;;;;;;;;;;5033834;28;20021;-63
2022/09/03 13:01:18;;;;;;;16.05;10.80;;;;;;;;;;5034064;28;20021;-62
2022/09/03 13:03:47;;;;;;;16.45;10.70;;;;;;;;;;5033936;28;20034;-63
2022/09/03 13:06:15;;;;;;;15.60;10.82;;;;;;;;;;5033951;28;20029;-62
2022/09/03 13:08:45;;;;;;;15.13;11.00;;;;;;;;;;5033299;28;20087;-63
2022/09/03 13:11:15;;;;;;;15.63;11.00;;;;;;;;;;5032552;28;20025;-63
2022/09/03 13:13:50;;;;;;;15.63;11.38;;;;;;;;;;5033661;28;20028;-61
2022/09/03 13:16:34;;;;;;;16.10;11.30;;;;;;;;;;5033816;28;20052;-62
2022/09/03 13:19:08;;;;;;;19.88;12.30;;;;;;;;;;5033114;28;20022;-60
2022/09/03 13:21:43;;;;;;;19.55;12.25;;;;;;;;;;5033130;28;20585;-63
2022/09/03 13:24:28;;;;;;;25.20;14.50;;;;;;;;;;5033540;28;20125;-62
2022/09/03 13:27:04;;;;;;;17.25;12.15;;;;;;;;;;5033365;28;20025;-63
2022/09/03 13:29:30;;;;;;;16.55;11.25;;;;;;;;;;5033033;28;20014;-62
2022/09/03 13:32:00;;;;;;;15.50;10.65;;;;;;;;;;5032969;28;20025;-61
2022/09/03 13:34:32;;;;;;;16.70;10.70;;;;;;;;;;5033331;28;20028;-62
2022/09/03 13:37:03;;;;;;;17.85;13.88;;;;;;;;;;4333172;28;9999947;-60
2022/09/03 13:39:39;;;;;;;16.08;10.55;;;;;;;;;;5011663;28;20040;-60
2022/09/03 13:42:09;;;;;;;16.55;11.50;;;;;;;;;;5009996;28;20037;-60
2022/09/03 13:44:40;;;;;;;15.60;10.98;;;;;;;;;;5032437;28;20104;-60
2022/09/03 13:47:18;;;;;;;18.10;11.20;;;;;;;;;;5052701;28;20051;-57
2022/09/03 13:52:41;;;;;;;16.30;10.90;;;;;;;;;;4694562;28;9999978;-62
2022/09/03 13:55:20;;;;;;;16.88;10.70;;;;;;;;;;5029708;28;20029;-64
2022/09/03 13:57:49;;;;;;;16.15;11.18;;;;;;;;;;5030278;28;20022;-63
2022/09/03 14:00:23;;;;;;;14.90;10.90;;;;;;;;;;5029953;28;20552;-63
2022/09/03 14:02:52;;;;;;;17.40;11.70;;;;;;;;;;5029661;28;20036;-61
2022/09/03 14:05:33;;;;;;;16.25;11.25;;;;;;;;;;5029758;28;20029;-64
2022/09/03 14:08:22;;;;;;;16.27;11.32;;;;;;;;;;5029200;28;20060;-63
2022/09/03 14:10:52;;;;;;;15.13;10.70;;;;;;;;;;5029487;28;20413;-61
2022/09/03 14:13:37;;;;;;;14.90;10.13;;;;;;;;;;5029632;28;20026;-62
2022/09/03 14:16:06;;;;;;;15.02;10.18;;;;;;;;;;5028038;28;20025;-62
2022/09/03 14:18:39;;;;;;;16.05;11.13;;;;;;;;;;5028970;28;20029;-62
2022/09/03 14:21:13;;;;;;;19.98;13.40;;;;;;;;;;5028872;28;20014;-63
2022/09/03 14:23:45;;;;;;;16.42;11.60;;;;;;;;;;5028440;28;20029;-59
2022/09/03 14:26:28;;;;;;;15.77;10.98;;;;;;;;;;5029278;28;20029;-57
2022/09/03 14:29:03;;;;;;;15.00;10.55;;;;;;;;;;5029321;28;20025;-58
2022/09/03 14:31:40;;;;;;;16.48;11.15;;;;;;;;;;5029861;28;20171;-57
2022/09/03 14:34:11;;;;;;;17.73;11.45;;;;;;;;;;5026775;28;20436;-60
2022/09/03 14:36:44;;;;;;;16.40;11.20;;;;;;;;;;5031937;28;20018;-60
2022/09/03 14:39:10;;;;;;;15.45;10.70;;;;;;;;;;5031418;28;20604;-58